Kvitbjoern — LM9158 — position and weather

sailwx.info

Track history (hours):
 
Tides and Currents Weather Stations Pressure Air Temp Water Temp Dewpoint Dewpoint Depression Visibility Wind Speed Wind Dir Waves Ship Positions

Kvitbjoern

Last reported at 2016-Aug-30 15:29 UTC. Time now 2016-Aug-30 17:07 UTC.
Position N 66°22' E 012°21'.

Length 10 m.

Type: Fishing. MMSI: 257454420.

Date/timePositionNaut miles runAvg speedWind from/ knotsBaromVisibWave heightAir tempDewpointWater temp
2016-Aug-30 15:29N 66°22' E 012°21'0 0.4
2016-Aug-30 14:28N 66°22' E 012°22'3 2.9
2016-Aug-30 13:32N 66°24' E 012°28'0 0.1
2016-Aug-30 11:27N 66°24' E 012°27'1 0.7
2016-Aug-30 10:31N 66°24' E 012°26'1 0.6
2016-Aug-30 09:33N 66°23' E 012°26'1 0.8
2016-Aug-30 08:32N 66°23' E 012°25'0 0.5
2016-Aug-30 07:33N 66°23' E 012°24'0 0.4
2016-Aug-30 06:28N 66°22' E 012°23'0 0.5
2016-Aug-30 05:24N 66°22' E 012°23'0 0.3
2016-Aug-30 04:23N 66°22' E 012°23'1 0.8
2016-Aug-30 03:31N 66°22' E 012°21'2 0.1
2016-Aug-29 14:28N 66°23' E 012°26'2 1.0
2016-Aug-29 12:14N 66°24' E 012°30'2 2.3
2016-Aug-29 11:30N 66°24' E 012°26'0 0.2
2016-Aug-29 10:26N 66°24' E 012°26'1 1.2
2016-Aug-29 09:34N 66°23' E 012°26'1 0.5
2016-Aug-29 08:30N 66°23' E 012°25'1 0.6
2016-Aug-29 07:32N 66°23' E 012°24'0 0.4
2016-Aug-29 06:32N 66°22' E 012°23'1 0.5
2016-Aug-29 05:32N 66°22' E 012°23'0 0.4
2016-Aug-29 04:33N 66°22' E 012°23'0 0.1
2016-Aug-29 03:32N 66°22' E 012°23'1 0.1
2016-Aug-28 16:10N 66°22' E 012°21'0 0.0
2016-Aug-28 15:21N 66°22' E 012°21'2 2.8
2016-Aug-28 14:32N 66°24' E 012°26'1 1.1
2016-Aug-28 13:33N 66°23' E 012°25'1 1.3
2016-Aug-28 12:33N 66°24' E 012°26'1 1.4
2016-Aug-28 11:31N 66°23' E 012°24'1 0.5
2016-Aug-28 10:33N 66°22' E 012°24'1 0.7
2016-Aug-28 09:33N 66°21' E 012°23'0 0.1
2016-Aug-28 08:33N 66°22' E 012°23'1 0.5
2016-Aug-28 07:32N 66°22' E 012°23'1 0.6
2016-Aug-28 06:21N 66°22' E 012°21'  
2016-Aug-25 16:23N 66°22' E 012°21'0 0.0
2016-Aug-25 15:17N 66°22' E 012°21'0 0.0
2016-Aug-25 14:29N 66°22' E 012°21'3 1.1
2016-Aug-25 11:28N 66°24' E 012°29'1 1.3
2016-Aug-25 10:20N 66°23' E 012°26'1 0.6
2016-Aug-25 09:22N 66°23' E 012°25'0 0.1
2016-Aug-25 08:24N 66°23' E 012°24'0 0.5
2016-Aug-25 07:28N 66°22' E 012°24'1 1.2
2016-Aug-25 06:28N 66°21' E 012°23'0 0.2
2016-Aug-25 04:27N 66°22' E 012°23'0 0.1
2016-Aug-25 03:24N 66°22' E 012°23'1 0.1
2016-Aug-24 15:30N 66°22' E 012°21'2 1.9
2016-Aug-24 14:31N 66°22' E 012°26'2 1.0
2016-Aug-24 12:17N 66°24' E 012°29'2 2.2
2016-Aug-24 11:29N 66°23' E 012°25'1 0.3
2016-Aug-24 09:33N 66°23' E 012°24'0 0.2
2016-Aug-24 08:33N 66°23' E 012°24'0 0.4
2016-Aug-24 07:33N 66°22' E 012°23'1 1.0
2016-Aug-24 06:32N 66°21' E 012°23'1 0.4
2016-Aug-24 04:32N 66°22' E 012°23'0 0.1
2016-Aug-24 03:34N 66°22' E 012°23'0 0.0
2016-Aug-23 16:29N 66°22' E 012°22'0 0.4
2016-Aug-23 15:30N 66°22' E 012°21'1 0.6
2016-Aug-23 14:29N 66°22' E 012°23'4 1.8
2016-Aug-23 12:21N 66°23' E 012°32'3 3.1
2016-Aug-23 11:28N 66°23' E 012°26'1 0.5
2016-Aug-23 10:32N 66°23' E 012°24'0 0.1
2016-Aug-23 09:29N 66°23' E 012°24'0 0.3
2016-Aug-23 08:30N 66°23' E 012°24'0 0.2
2016-Aug-23 07:25N 66°23' E 012°24'1 1.4
2016-Aug-23 06:32N 66°21' E 012°23'1 0.5
2016-Aug-23 05:29N 66°22' E 012°23'0 0.3
2016-Aug-23 04:33N 66°22' E 012°23'0 0.0
2016-Aug-23 03:32N 66°22' E 012°23'1 0.1
2016-Aug-22 15:29N 66°22' E 012°21'2 0.8
2016-Aug-22 12:32N 66°23' E 012°27'1 0.7
2016-Aug-22 11:33N 66°23' E 012°25'0 0.5
2016-Aug-22 10:31N 66°23' E 012°24'0 0.2
2016-Aug-22 09:27N 66°23' E 012°24'0 0.3
2016-Aug-22 08:27N 66°23' E 012°24'1 1.0
2016-Aug-22 07:32N 66°22' E 012°23'0 0.3
2016-Aug-22 06:08N 66°21' E 012°23'0 0.4
2016-Aug-22 05:30N 66°22' E 012°22'0 0.2
2016-Aug-22 04:14N 66°22' E 012°23'0 0.3
2016-Aug-22 03:29N 66°22' E 012°23'1 0.1
2016-Aug-21 16:04N 66°22' E 012°21'1 1.2
2016-Aug-21 15:27N 66°22' E 012°23'1 1.0
2016-Aug-21 14:30N 66°23' E 012°25'0 0.4
2016-Aug-21 13:27N 66°23' E 012°24'1 0.0
2016-Aug-20 18:29N 66°23' E 012°23'1 0.5
2016-Aug-20 17:31N 66°23' E 012°24'0 0.2
2016-Aug-20 16:28N 66°23' E 012°24'  
Track history (hours):
 
Tides and Currents Weather Stations Pressure Air Temp Water Temp Dewpoint Dewpoint Depression Visibility Wind Speed Wind Dir Waves Ship Positions

Kvitbjoern

Last reported at 2016-Aug-30 15:29 UTC. Time now 2016-Aug-30 17:07 UTC.
Position N 66°22' E 012°21'.

Length 10 m.

Type: Fishing. MMSI: 257454420.

Date/timePositionNaut miles runAvg speedWind from/ knotsBaromVisibWave heightAir tempDewpointWater temp
2016-Aug-30 15:29N 66°22' E 012°21'0 0.4
2016-Aug-30 14:28N 66°22' E 012°22'3 2.9
2016-Aug-30 13:32N 66°24' E 012°28'0 0.1
2016-Aug-30 11:27N 66°24' E 012°27'1 0.7
2016-Aug-30 10:31N 66°24' E 012°26'1 0.6
2016-Aug-30 09:33N 66°23' E 012°26'1 0.8
2016-Aug-30 08:32N 66°23' E 012°25'0 0.5
2016-Aug-30 07:33N 66°23' E 012°24'0 0.4
2016-Aug-30 06:28N 66°22' E 012°23'0 0.5
2016-Aug-30 05:24N 66°22' E 012°23'0 0.3
2016-Aug-30 04:23N 66°22' E 012°23'1 0.8
2016-Aug-30 03:31N 66°22' E 012°21'2 0.1
2016-Aug-29 14:28N 66°23' E 012°26'2 1.0
2016-Aug-29 12:14N 66°24' E 012°30'2 2.3
2016-Aug-29 11:30N 66°24' E 012°26'0 0.2
2016-Aug-29 10:26N 66°24' E 012°26'1 1.2
2016-Aug-29 09:34N 66°23' E 012°26'1 0.5
2016-Aug-29 08:30N 66°23' E 012°25'1 0.6
2016-Aug-29 07:32N 66°23' E 012°24'0 0.4
2016-Aug-29 06:32N 66°22' E 012°23'1 0.5
2016-Aug-29 05:32N 66°22' E 012°23'0 0.4
2016-Aug-29 04:33N 66°22' E 012°23'0 0.1
2016-Aug-29 03:32N 66°22' E 012°23'1 0.1
2016-Aug-28 16:10N 66°22' E 012°21'0 0.0
2016-Aug-28 15:21N 66°22' E 012°21'2 2.8
2016-Aug-28 14:32N 66°24' E 012°26'1 1.1
2016-Aug-28 13:33N 66°23' E 012°25'1 1.3
2016-Aug-28 12:33N 66°24' E 012°26'1 1.4
2016-Aug-28 11:31N 66°23' E 012°24'1 0.5
2016-Aug-28 10:33N 66°22' E 012°24'1 0.7
2016-Aug-28 09:33N 66°21' E 012°23'0 0.1
2016-Aug-28 08:33N 66°22' E 012°23'1 0.5
2016-Aug-28 07:32N 66°22' E 012°23'1 0.6
2016-Aug-28 06:21N 66°22' E 012°21'  
2016-Aug-25 16:23N 66°22' E 012°21'0 0.0
2016-Aug-25 15:17N 66°22' E 012°21'0 0.0
2016-Aug-25 14:29N 66°22' E 012°21'3 1.1
2016-Aug-25 11:28N 66°24' E 012°29'1 1.3
2016-Aug-25 10:20N 66°23' E 012°26'1 0.6
2016-Aug-25 09:22N 66°23' E 012°25'0 0.1
2016-Aug-25 08:24N 66°23' E 012°24'0 0.5
2016-Aug-25 07:28N 66°22' E 012°24'1 1.2
2016-Aug-25 06:28N 66°21' E 012°23'0 0.2
2016-Aug-25 04:27N 66°22' E 012°23'0 0.1
2016-Aug-25 03:24N 66°22' E 012°23'1 0.1
2016-Aug-24 15:30N 66°22' E 012°21'2 1.9
2016-Aug-24 14:31N 66°22' E 012°26'2 1.0
2016-Aug-24 12:17N 66°24' E 012°29'2 2.2
2016-Aug-24 11:29N 66°23' E 012°25'1 0.3
2016-Aug-24 09:33N 66°23' E 012°24'0 0.2
2016-Aug-24 08:33N 66°23' E 012°24'0 0.4
2016-Aug-24 07:33N 66°22' E 012°23'1 1.0
2016-Aug-24 06:32N 66°21' E 012°23'1 0.4
2016-Aug-24 04:32N 66°22' E 012°23'0 0.1
2016-Aug-24 03:34N 66°22' E 012°23'0 0.0
2016-Aug-23 16:29N 66°22' E 012°22'0 0.4
2016-Aug-23 15:30N 66°22' E 012°21'1 0.6
2016-Aug-23 14:29N 66°22' E 012°23'4 1.8
2016-Aug-23 12:21N 66°23' E 012°32'3 3.1
2016-Aug-23 11:28N 66°23' E 012°26'1 0.5
2016-Aug-23 10:32N 66°23' E 012°24'0 0.1
2016-Aug-23 09:29N 66°23' E 012°24'0 0.3
2016-Aug-23 08:30N 66°23' E 012°24'0 0.2
2016-Aug-23 07:25N 66°23' E 012°24'1 1.4
2016-Aug-23 06:32N 66°21' E 012°23'1 0.5
2016-Aug-23 05:29N 66°22' E 012°23'0 0.3
2016-Aug-23 04:33N 66°22' E 012°23'0 0.0
2016-Aug-23 03:32N 66°22' E 012°23'1 0.1
2016-Aug-22 15:29N 66°22' E 012°21'2 0.8
2016-Aug-22 12:32N 66°23' E 012°27'1 0.7
2016-Aug-22 11:33N 66°23' E 012°25'0 0.5
2016-Aug-22 10:31N 66°23' E 012°24'0 0.2
2016-Aug-22 09:27N 66°23' E 012°24'0 0.3
2016-Aug-22 08:27N 66°23' E 012°24'1 1.0
2016-Aug-22 07:32N 66°22' E 012°23'0 0.3
2016-Aug-22 06:08N 66°21' E 012°23'0 0.4
2016-Aug-22 05:30N 66°22' E 012°22'0 0.2
2016-Aug-22 04:14N 66°22' E 012°23'0 0.3
2016-Aug-22 03:29N 66°22' E 012°23'1 0.1
2016-Aug-21 16:04N 66°22' E 012°21'1 1.2
2016-Aug-21 15:27N 66°22' E 012°23'1 1.0
2016-Aug-21 14:30N 66°23' E 012°25'0 0.4
2016-Aug-21 13:27N 66°23' E 012°24'1 0.0
2016-Aug-20 18:29N 66°23' E 012°23'1 0.5
2016-Aug-20 17:31N 66°23' E 012°24'0 0.2
2016-Aug-20 16:28N 66°23' E 012°24'  

Dump ship's entire track history